sensor_id;sensor_type;location;lat;lon;timestamp;P1;durP1;ratioP1;P2;durP2;ratioP2
60710;SDS011;46554;48.138;8.420;2023-10-13T00:00:28;8.27;;;3.25;;
60710;SDS011;46554;48.138;8.420;2023-10-13T00:03:02;3.30;;;2.17;;
60710;SDS011;46554;48.138;8.420;2023-10-13T00:05:28;2.10;;;2.00;;
60710;SDS011;46554;48.138;8.420;2023-10-13T00:07:55;3.25;;;3.05;;
60710;SDS011;46554;48.138;8.420;2023-10-13T00:10:28;5.93;;;5.47;;
60710;SDS011;46554;48.138;8.420;2023-10-13T00:12:53;6.07;;;5.78;;
60710;SDS011;46554;48.138;8.420;2023-10-13T00:15:19;7.55;;;6.57;;
60710;SDS011;46554;48.138;8.420;2023-10-13T00:17:53;4.72;;;4.32;;
60710;SDS011;46554;48.138;8.420;2023-10-13T00:20:20;9.50;;;8.93;;
60710;SDS011;46554;48.138;8.420;2023-10-13T00:23:03;7.00;;;6.43;;
60710;SDS011;46554;48.138;8.420;2023-10-13T00:25:28;6.82;;;6.40;;
60710;SDS011;46554;48.138;8.420;2023-10-13T00:27:56;5.78;;;5.28;;
60710;SDS011;46554;48.138;8.420;2023-10-13T00:30:26;3.83;;;3.63;;
60710;SDS011;46554;48.138;8.420;2023-10-13T00:33:02;5.57;;;5.10;;
60710;SDS011;46554;48.138;8.420;2023-10-13T00:35:32;6.95;;;6.35;;
60710;SDS011;46554;48.138;8.420;2023-10-13T00:38:07;17.83;;;16.92;;
60710;SDS011;46554;48.138;8.420;2023-10-13T00:40:39;17.95;;;16.55;;
60710;SDS011;46554;48.138;8.420;2023-10-13T00:43:05;10.05;;;9.50;;
60710;SDS011;46554;48.138;8.420;2023-10-13T00:45:41;6.47;;;6.13;;
60710;SDS011;46554;48.138;8.420;2023-10-13T00:48:08;7.85;;;6.35;;
60710;SDS011;46554;48.138;8.420;2023-10-13T00:50:39;5.45;;;2.92;;
60710;SDS011;46554;48.138;8.420;2023-10-13T00:53:05;3.03;;;2.30;;
60710;SDS011;46554;48.138;8.420;2023-10-13T00:55:32;3.30;;;3.10;;
60710;SDS011;46554;48.138;8.420;2023-10-13T00:57:59;3.05;;;2.85;;
60710;SDS011;46554;48.138;8.420;2023-10-13T01:00:28;5.25;;;2.92;;
60710;SDS011;46554;48.138;8.420;2023-10-13T01:02:54;2.20;;;2.08;;
60710;SDS011;46554;48.138;8.420;2023-10-13T01:05:21;2.50;;;2.30;;
60710;SDS011;46554;48.138;8.420;2023-10-13T01:07:47;2.67;;;2.50;;
60710;SDS011;46554;48.138;8.420;2023-10-13T01:10:19;3.10;;;1.77;;
60710;SDS011;46554;48.138;8.420;2023-10-13T01:12:52;2.15;;;1.60;;
60710;SDS011;46554;48.138;8.420;2023-10-13T01:15:20;3.65;;;2.28;;
60710;SDS011;46554;48.138;8.420;2023-10-13T01:17:48;2.58;;;2.30;;
60710;SDS011;46554;48.138;8.420;2023-10-13T01:20:14;2.20;;;1.95;;
60710;SDS011;46554;48.138;8.420;2023-10-13T01:22:45;1.95;;;1.85;;
60710;SDS011;46554;48.138;8.420;2023-10-13T01:25:20;2.38;;;2.25;;
60710;SDS011;46554;48.138;8.420;2023-10-13T01:27:50;10.73;;;9.73;;
60710;SDS011;46554;48.138;8.420;2023-10-13T01:30:18;6.35;;;5.93;;
60710;SDS011;46554;48.138;8.420;2023-10-13T01:32:51;5.40;;;5.10;;
60710;SDS011;46554;48.138;8.420;2023-10-13T01:35:18;3.38;;;2.75;;
60710;SDS011;46554;48.138;8.420;2023-10-13T01:37:53;3.33;;;2.67;;
60710;SDS011;46554;48.138;8.420;2023-10-13T01:40:18;2.08;;;1.98;;
60710;SDS011;46554;48.138;8.420;2023-10-13T01:42:53;5.28;;;2.55;;
60710;SDS011;46554;48.138;8.420;2023-10-13T01:45:20;3.08;;;1.98;;
60710;SDS011;46554;48.138;8.420;2023-10-13T01:47:46;2.38;;;1.92;;
60710;SDS011;46554;48.138;8.420;2023-10-13T01:50:11;2.00;;;1.85;;
60710;SDS011;46554;48.138;8.420;2023-10-13T01:52:46;5.70;;;2.33;;
60710;SDS011;46554;48.138;8.420;2023-10-13T01:55:11;7.82;;;1.83;;
60710;SDS011;46554;48.138;8.420;2023-10-13T01:57:39;1.92;;;1.83;;
60710;SDS011;46554;48.138;8.420;2023-10-13T02:00:07;2.00;;;1.85;;
60710;SDS011;46554;48.138;8.420;2023-10-13T02:02:44;2.20;;;2.00;;
60710;SDS011;46554;48.138;8.420;2023-10-13T02:05:17;9.27;;;2.08;;
60710;SDS011;46554;48.138;8.420;2023-10-13T02:07:42;3.10;;;1.67;;
60710;SDS011;46554;48.138;8.420;2023-10-13T02:10:11;2.45;;;2.20;;
60710;SDS011;46554;48.138;8.420;2023-10-13T02:12:37;7.18;;;6.35;;
60710;SDS011;46554;48.138;8.420;2023-10-13T02:15:12;7.10;;;6.70;;
60710;SDS011;46554;48.138;8.420;2023-10-13T02:17:47;10.32;;;9.45;;
60710;SDS011;46554;48.138;8.420;2023-10-13T02:20:16;6.72;;;6.32;;
60710;SDS011;46554;48.138;8.420;2023-10-13T02:22:43;4.75;;;4.43;;
60710;SDS011;46554;48.138;8.420;2023-10-13T02:25:14;3.45;;;3.25;;
60710;SDS011;46554;48.138;8.420;2023-10-13T02:28:00;4.97;;;2.45;;
60710;SDS011;46554;48.138;8.420;2023-10-13T02:30:26;6.18;;;5.28;;
60710;SDS011;46554;48.138;8.420;2023-10-13T02:32:52;6.15;;;5.55;;
60710;SDS011;46554;48.138;8.420;2023-10-13T02:35:18;5.25;;;4.68;;
60710;SDS011;46554;48.138;8.420;2023-10-13T02:37:45;4.43;;;4.07;;
60710;SDS011;46554;48.138;8.420;2023-10-13T02:40:19;8.00;;;3.85;;
60710;SDS011;46554;48.138;8.420;2023-10-13T02:42:48;3.60;;;2.67;;
60710;SDS011;46554;48.138;8.420;2023-10-13T02:45:13;8.48;;;6.47;;
60710;SDS011;46554;48.138;8.420;2023-10-13T02:47:40;3.90;;;3.53;;
60710;SDS011;46554;48.138;8.420;2023-10-13T02:50:08;5.78;;;3.60;;
60710;SDS011;46554;48.138;8.420;2023-10-13T02:52:37;3.30;;;3.10;;
60710;SDS011;46554;48.138;8.420;2023-10-13T02:55:06;2.97;;;2.80;;
60710;SDS011;46554;48.138;8.420;2023-10-13T02:57:38;2.42;;;2.17;;
60710;SDS011;46554;48.138;8.420;2023-10-13T03:00:05;2.30;;;1.98;;
60710;SDS011;46554;48.138;8.420;2023-10-13T03:02:42;2.50;;;2.13;;
60710;SDS011;46554;48.138;8.420;2023-10-13T03:05:12;2.13;;;1.88;;
60710;SDS011;46554;48.138;8.420;2023-10-13T03:07:41;2.90;;;2.17;;
60710;SDS011;46554;48.138;8.420;2023-10-13T03:10:09;2.65;;;2.28;;
60710;SDS011;46554;48.138;8.420;2023-10-13T03:12:38;9.30;;;2.08;;
60710;SDS011;46554;48.138;8.420;2023-10-13T03:15:07;4.03;;;3.72;;
60710;SDS011;46554;48.138;8.420;2023-10-13T03:17:43;5.70;;;2.40;;
60710;SDS011;46554;48.138;8.420;2023-10-13T03:20:18;5.13;;;3.08;;
60710;SDS011;46554;48.138;8.420;2023-10-13T03:23:03;2.78;;;2.58;;
60710;SDS011;46554;48.138;8.420;2023-10-13T03:25:34;3.88;;;3.58;;
60710;SDS011;46554;48.138;8.420;2023-10-13T03:28:07;4.95;;;4.07;;
60710;SDS011;46554;48.138;8.420;2023-10-13T03:30:38;2.17;;;2.08;;
60710;SDS011;46554;48.138;8.420;2023-10-13T03:33:07;6.53;;;2.90;;
60710;SDS011;46554;48.138;8.420;2023-10-13T03:35:39;3.78;;;2.58;;
60710;SDS011;46554;48.138;8.420;2023-10-13T03:38:13;3.47;;;3.22;;
60710;SDS011;46554;48.138;8.420;2023-10-13T03:40:45;2.75;;;2.55;;
60710;SDS011;46554;48.138;8.420;2023-10-13T03:43:21;2.47;;;2.28;;
60710;SDS011;46554;48.138;8.420;2023-10-13T03:45:48;4.53;;;2.90;;
60710;SDS011;46554;48.138;8.420;2023-10-13T03:48:18;4.80;;;3.28;;
60710;SDS011;46554;48.138;8.420;2023-10-13T03:53:32;4.30;;;3.08;;
60710;SDS011;46554;48.138;8.420;2023-10-13T03:58:40;8.27;;;2.50;;
60710;SDS011;46554;48.138;8.420;2023-10-13T04:01:12;3.30;;;2.85;;
60710;SDS011;46554;48.138;8.420;2023-10-13T04:03:40;2.70;;;2.45;;
60710;SDS011;46554;48.138;8.420;2023-10-13T04:06:22;4.28;;;3.55;;
60710;SDS011;46554;48.138;8.420;2023-10-13T04:09:08;4.15;;;3.85;;
60710;SDS011;46554;48.138;8.420;2023-10-13T04:11:52;3.88;;;3.33;;
60710;SDS011;46554;48.138;8.420;2023-10-13T04:14:41;3.35;;;3.03;;
60710;SDS011;46554;48.138;8.420;2023-10-13T04:17:22;2.78;;;2.67;;
60710;SDS011;46554;48.138;8.420;2023-10-13T04:19:50;3.28;;;2.78;;
60710;SDS011;46554;48.138;8.420;2023-10-13T04:22:41;3.22;;;2.72;;
60710;SDS011;46554;48.138;8.420;2023-10-13T04:25:14;3.10;;;2.80;;
60710;SDS011;46554;48.138;8.420;2023-10-13T04:28:01;3.55;;;3.25;;
60710;SDS011;46554;48.138;8.420;2023-10-13T04:30:42;3.55;;;3.25;;
60710;SDS011;46554;48.138;8.420;2023-10-13T04:33:23;3.72;;;3.45;;
60710;SDS011;46554;48.138;8.420;2023-10-13T04:38:55;4.25;;;3.40;;
60710;SDS011;46554;48.138;8.420;2023-10-13T04:44:08;5.13;;;4.63;;
60710;SDS011;46554;48.138;8.420;2023-10-13T04:46:54;5.38;;;4.72;;
60710;SDS011;46554;48.138;8.420;2023-10-13T04:49:33;3.72;;;3.42;;
60710;SDS011;46554;48.138;8.420;2023-10-13T04:52:01;5.20;;;3.47;;
60710;SDS011;46554;48.138;8.420;2023-10-13T04:54:33;4.32;;;3.80;;
60710;SDS011;46554;48.138;8.420;2023-10-13T04:57:23;4.47;;;3.92;;
60710;SDS011;46554;48.138;8.420;2023-10-13T05:00:08;3.80;;;3.00;;
60710;SDS011;46554;48.138;8.420;2023-10-13T05:02:39;10.57;;;2.65;;
60710;SDS011;46554;48.138;8.420;2023-10-13T05:05:07;6.75;;;2.67;;
60710;SDS011;46554;48.138;8.420;2023-10-13T05:07:39;3.38;;;2.95;;
60710;SDS011;46554;48.138;8.420;2023-10-13T05:10:27;2.63;;;1.95;;
60710;SDS011;46554;48.138;8.420;2023-10-13T05:13:11;2.83;;;2.20;;
60710;SDS011;46554;48.138;8.420;2023-10-13T05:15:55;3.30;;;2.20;;
60710;SDS011;46554;48.138;8.420;2023-10-13T05:18:39;3.78;;;2.25;;
60710;SDS011;46554;48.138;8.420;2023-10-13T05:21:26;6.30;;;2.95;;
60710;SDS011;46554;48.138;8.420;2023-10-13T05:24:10;11.85;;;3.65;;
60710;SDS011;46554;48.138;8.420;2023-10-13T05:26:53;3.88;;;3.13;;
60710;SDS011;46554;48.138;8.420;2023-10-13T05:29:41;4.20;;;2.92;;
60710;SDS011;46554;48.138;8.420;2023-10-13T05:32:26;3.03;;;2.75;;
60710;SDS011;46554;48.138;8.420;2023-10-13T05:35:09;5.93;;;2.33;;
60710;SDS011;46554;48.138;8.420;2023-10-13T05:37:53;6.47;;;3.58;;
60710;SDS011;46554;48.138;8.420;2023-10-13T05:40:37;8.90;;;2.45;;
60710;SDS011;46554;48.138;8.420;2023-10-13T05:43:21;2.67;;;2.47;;
60710;SDS011;46554;48.138;8.420;2023-10-13T05:46:05;9.55;;;2.20;;
60710;SDS011;46554;48.138;8.420;2023-10-13T05:49:06;3.80;;;3.42;;
60710;SDS011;46554;48.138;8.420;2023-10-13T05:51:35;4.00;;;2.55;;
60710;SDS011;46554;48.138;8.420;2023-10-13T05:54:01;5.32;;;3.08;;
60710;SDS011;46554;48.138;8.420;2023-10-13T05:56:46;6.80;;;2.90;;
60710;SDS011;46554;48.138;8.420;2023-10-13T05:59:31;2.72;;;2.13;;
60710;SDS011;46554;48.138;8.420;2023-10-13T06:02:16;8.00;;;4.38;;
60710;SDS011;46554;48.138;8.420;2023-10-13T06:05:07;6.03;;;4.78;;
60710;SDS011;46554;48.138;8.420;2023-10-13T06:07:52;7.00;;;6.40;;
60710;SDS011;46554;48.138;8.420;2023-10-13T06:10:38;12.07;;;10.52;;
60710;SDS011;46554;48.138;8.420;2023-10-13T06:13:22;11.93;;;10.93;;
60710;SDS011;46554;48.138;8.420;2023-10-13T06:16:07;13.52;;;12.73;;
60710;SDS011;46554;48.138;8.420;2023-10-13T06:18:51;12.80;;;12.00;;
60710;SDS011;46554;48.138;8.420;2023-10-13T06:21:35;11.63;;;10.57;;
60710;SDS011;46554;48.138;8.420;2023-10-13T06:24:19;9.95;;;9.10;;
60710;SDS011;46554;48.138;8.420;2023-10-13T06:27:03;8.68;;;8.18;;
60710;SDS011;46554;48.138;8.420;2023-10-13T06:29:49;7.15;;;6.70;;
60710;SDS011;46554;48.138;8.420;2023-10-13T06:32:15;6.80;;;6.10;;
60710;SDS011;46554;48.138;8.420;2023-10-13T06:34:41;5.63;;;5.18;;
60710;SDS011;46554;48.138;8.420;2023-10-13T06:37:10;7.03;;;6.53;;
60710;SDS011;46554;48.138;8.420;2023-10-13T06:39:56;3.72;;;3.20;;
60710;SDS011;46554;48.138;8.420;2023-10-13T06:42:25;6.75;;;4.75;;
60710;SDS011;46554;48.138;8.420;2023-10-13T06:44:59;4.57;;;2.75;;
60710;SDS011;46554;48.138;8.420;2023-10-13T06:47:33;6.50;;;2.70;;
60710;SDS011;46554;48.138;8.420;2023-10-13T06:50:05;2.28;;;2.10;;
60710;SDS011;46554;48.138;8.420;2023-10-13T06:52:32;6.70;;;3.08;;
60710;SDS011;46554;48.138;8.420;2023-10-13T06:54:57;7.30;;;6.75;;
60710;SDS011;46554;48.138;8.420;2023-10-13T06:57:23;11.20;;;5.90;;
60710;SDS011;46554;48.138;8.420;2023-10-13T06:59:51;5.90;;;5.55;;
60710;SDS011;46554;48.138;8.420;2023-10-13T07:02:18;9.60;;;6.25;;
60710;SDS011;46554;48.138;8.420;2023-10-13T07:04:47;7.68;;;7.05;;
60710;SDS011;46554;48.138;8.420;2023-10-13T07:07:22;9.40;;;8.73;;
60710;SDS011;46554;48.138;8.420;2023-10-13T07:09:48;5.80;;;5.30;;
60710;SDS011;46554;48.138;8.420;2023-10-13T07:12:20;7.72;;;3.67;;
60710;SDS011;46554;48.138;8.420;2023-10-13T07:14:51;4.68;;;3.17;;
60710;SDS011;46554;48.138;8.420;2023-10-13T07:17:17;2.75;;;2.50;;
60710;SDS011;46554;48.138;8.420;2023-10-13T07:19:52;13.52;;;2.80;;
60710;SDS011;46554;48.138;8.420;2023-10-13T07:22:18;2.53;;;2.30;;
60710;SDS011;46554;48.138;8.420;2023-10-13T07:24:45;3.10;;;2.33;;
60710;SDS011;46554;48.138;8.420;2023-10-13T07:27:14;2.40;;;2.15;;
60710;SDS011;46554;48.138;8.420;2023-10-13T07:29:49;12.95;;;3.03;;
60710;SDS011;46554;48.138;8.420;2023-10-13T07:32:22;3.58;;;3.15;;
60710;SDS011;46554;48.138;8.420;2023-10-13T07:34:52;4.07;;;3.78;;
60710;SDS011;46554;48.138;8.420;2023-10-13T07:37:21;7.15;;;6.68;;
60710;SDS011;46554;48.138;8.420;2023-10-13T07:39:53;7.20;;;6.72;;
60710;SDS011;46554;48.138;8.420;2023-10-13T07:42:22;3.72;;;3.42;;
60710;SDS011;46554;48.138;8.420;2023-10-13T07:44:57;1.55;;;1.48;;
60710;SDS011;46554;48.138;8.420;2023-10-13T07:47:23;3.05;;;1.95;;
60710;SDS011;46554;48.138;8.420;2023-10-13T07:49:49;4.43;;;2.00;;
60710;SDS011;46554;48.138;8.420;2023-10-13T07:52:15;5.47;;;5.13;;
60710;SDS011;46554;48.138;8.420;2023-10-13T07:54:47;13.95;;;12.77;;
60710;SDS011;46554;48.138;8.420;2023-10-13T07:57:24;4.72;;;4.43;;
60710;SDS011;46554;48.138;8.420;2023-10-13T07:59:55;8.65;;;8.07;;
60710;SDS011;46554;48.138;8.420;2023-10-13T08:02:34;11.40;;;5.88;;
60710;SDS011;46554;48.138;8.420;2023-10-13T08:05:16;4.10;;;2.67;;
60710;SDS011;46554;48.138;8.420;2023-10-13T08:08:02;2.10;;;2.00;;
60710;SDS011;46554;48.138;8.420;2023-10-13T08:10:34;15.15;;;14.20;;
60710;SDS011;46554;48.138;8.420;2023-10-13T08:13:02;20.75;;;19.20;;
60710;SDS011;46554;48.138;8.420;2023-10-13T08:15:39;7.38;;;6.88;;
60710;SDS011;46554;48.138;8.420;2023-10-13T08:18:12;7.03;;;3.00;;
60710;SDS011;46554;48.138;8.420;2023-10-13T08:20:42;4.10;;;3.67;;
60710;SDS011;46554;48.138;8.420;2023-10-13T08:23:10;7.30;;;6.78;;
60710;SDS011;46554;48.138;8.420;2023-10-13T08:25:41;6.78;;;3.63;;
60710;SDS011;46554;48.138;8.420;2023-10-13T08:28:45;3.50;;;3.22;;
60710;SDS011;46554;48.138;8.420;2023-10-13T08:31:13;21.20;;;20.13;;
60710;SDS011;46554;48.138;8.420;2023-10-13T08:33:50;11.07;;;10.20;;
60710;SDS011;46554;48.138;8.420;2023-10-13T08:36:23;4.30;;;3.95;;
60710;SDS011;46554;48.138;8.420;2023-10-13T08:38:55;4.82;;;3.78;;
60710;SDS011;46554;48.138;8.420;2023-10-13T08:41:21;3.35;;;2.55;;
60710;SDS011;46554;48.138;8.420;2023-10-13T08:43:47;2.85;;;2.28;;
60710;SDS011;46554;48.138;8.420;2023-10-13T08:48:58;3.70;;;3.25;;
60710;SDS011;46554;48.138;8.420;2023-10-13T08:51:40;5.57;;;5.28;;
60710;SDS011;46554;48.138;8.420;2023-10-13T08:54:30;7.70;;;6.55;;
60710;SDS011;46554;48.138;8.420;2023-10-13T08:57:04;9.65;;;8.82;;
60710;SDS011;46554;48.138;8.420;2023-10-13T08:59:45;4.75;;;4.43;;
60710;SDS011;46554;48.138;8.420;2023-10-13T09:02:18;4.70;;;4.38;;
60710;SDS011;46554;48.138;8.420;2023-10-13T09:04:47;5.05;;;2.85;;
60710;SDS011;46554;48.138;8.420;2023-10-13T09:07:24;13.00;;;12.10;;
60710;SDS011;46554;48.138;8.420;2023-10-13T09:09:50;14.07;;;13.35;;
60710;SDS011;46554;48.138;8.420;2023-10-13T09:12:23;3.70;;;2.90;;
60710;SDS011;46554;48.138;8.420;2023-10-13T09:14:58;43.90;;;41.88;;
60710;SDS011;46554;48.138;8.420;2023-10-13T09:17:30;63.85;;;60.60;;
60710;SDS011;46554;48.138;8.420;2023-10-13T09:20:00;36.22;;;34.35;;
60710;SDS011;46554;48.138;8.420;2023-10-13T09:22:45;57.45;;;54.70;;
60710;SDS011;46554;48.138;8.420;2023-10-13T09:25:40;14.43;;;13.70;;
60710;SDS011;46554;48.138;8.420;2023-10-13T09:28:29;9.43;;;8.23;;
60710;SDS011;46554;48.138;8.420;2023-10-13T09:30:56;5.03;;;2.95;;
60710;SDS011;46554;48.138;8.420;2023-10-13T09:33:25;4.15;;;2.67;;
60710;SDS011;46554;48.138;8.420;2023-10-13T09:36:14;7.32;;;6.93;;
60710;SDS011;46554;48.138;8.420;2023-10-13T09:38:42;3.55;;;3.35;;
60710;SDS011;46554;48.138;8.420;2023-10-13T09:41:30;8.45;;;2.80;;
60710;SDS011;46554;48.138;8.420;2023-10-13T09:43:58;8.07;;;6.85;;
60710;SDS011;46554;48.138;8.420;2023-10-13T09:46:25;9.93;;;9.38;;
60710;SDS011;46554;48.138;8.420;2023-10-13T09:49:02;3.15;;;2.95;;
60710;SDS011;46554;48.138;8.420;2023-10-13T09:51:33;3.03;;;2.70;;
60710;SDS011;46554;48.138;8.420;2023-10-13T09:56:38;3.45;;;1.70;;
60710;SDS011;46554;48.138;8.420;2023-10-13T09:59:17;1.83;;;1.73;;
60710;SDS011;46554;48.138;8.420;2023-10-13T10:01:46;2.30;;;2.20;;
60710;SDS011;46554;48.138;8.420;2023-10-13T10:04:17;4.05;;;3.75;;
60710;SDS011;46554;48.138;8.420;2023-10-13T10:06:56;6.85;;;2.47;;
60710;SDS011;46554;48.138;8.420;2023-10-13T10:09:31;4.43;;;4.22;;
60710;SDS011;46554;48.138;8.420;2023-10-13T10:17:59;3.10;;;2.80;;
60710;SDS011;46554;48.138;8.420;2023-10-13T10:23:07;5.20;;;2.38;;
60710;SDS011;46554;48.138;8.420;2023-10-13T10:25:47;1.92;;;1.50;;
60710;SDS011;46554;48.138;8.420;2023-10-13T10:28:12;2.45;;;2.13;;
60710;SDS011;46554;48.138;8.420;2023-10-13T10:30:41;2.17;;;1.95;;
60710;SDS011;46554;48.138;8.420;2023-10-13T10:33:07;1.95;;;1.85;;
60710;SDS011;46554;48.138;8.420;2023-10-13T10:35:38;1.67;;;1.58;;
60710;SDS011;46554;48.138;8.420;2023-10-13T10:38:15;6.75;;;2.45;;
60710;SDS011;46554;48.138;8.420;2023-10-13T10:40:54;3.75;;;2.42;;
60710;SDS011;46554;48.138;8.420;2023-10-13T10:43:44;4.45;;;1.45;;
60710;SDS011;46554;48.138;8.420;2023-10-13T10:48:38;5.22;;;1.90;;
60710;SDS011;46554;48.138;8.420;2023-10-13T10:51:08;6.22;;;1.67;;
60710;SDS011;46554;48.138;8.420;2023-10-13T10:53:46;1.77;;;1.48;;
60710;SDS011;46554;48.138;8.420;2023-10-13T10:56:16;6.30;;;1.70;;
60710;SDS011;46554;48.138;8.420;2023-10-13T10:58:46;3.13;;;1.70;;
60710;SDS011;46554;48.138;8.420;2023-10-13T11:01:19;1.45;;;1.23;;
60710;SDS011;46554;48.138;8.420;2023-10-13T11:03:57;5.22;;;1.60;;
60710;SDS011;46554;48.138;8.420;2023-10-13T11:06:27;1.40;;;1.30;;
60710;SDS011;46554;48.138;8.420;2023-10-13T11:09:05;4.75;;;1.77;;
60710;SDS011;46554;48.138;8.420;2023-10-13T11:11:51;1.30;;;1.20;;
60710;SDS011;46554;48.138;8.420;2023-10-13T11:14:25;3.90;;;1.48;;
60710;SDS011;46554;48.138;8.420;2023-10-13T11:16:54;1.17;;;1.10;;
60710;SDS011;46554;48.138;8.420;2023-10-13T11:19:38;2.22;;;1.30;;
60710;SDS011;46554;48.138;8.420;2023-10-13T11:22:14;1.80;;;1.50;;
60710;SDS011;46554;48.138;8.420;2023-10-13T11:25:07;1.02;;;0.98;;
60710;SDS011;46554;48.138;8.420;2023-10-13T11:27:41;1.90;;;1.40;;
60710;SDS011;46554;48.138;8.420;2023-10-13T11:30:12;5.07;;;1.23;;
60710;SDS011;46554;48.138;8.420;2023-10-13T11:32:45;6.78;;;1.65;;
60710;SDS011;46554;48.138;8.420;2023-10-13T11:35:11;6.07;;;1.17;;
60710;SDS011;46554;48.138;8.420;2023-10-13T11:37:50;1.40;;;1.30;;
60710;SDS011;46554;48.138;8.420;2023-10-13T11:40:50;5.65;;;1.55;;
60710;SDS011;46554;48.138;8.420;2023-10-13T11:43:32;1.45;;;1.35;;
60710;SDS011;46554;48.138;8.420;2023-10-13T11:46:18;1.95;;;1.33;;
60710;SDS011;46554;48.138;8.420;2023-10-13T11:49:00;2.25;;;1.38;;
60710;SDS011;46554;48.138;8.420;2023-10-13T11:51:32;1.63;;;1.52;;
60710;SDS011;46554;48.138;8.420;2023-10-13T11:54:03;2.63;;;2.03;;
60710;SDS011;46554;48.138;8.420;2023-10-13T11:56:31;3.30;;;1.67;;
60710;SDS011;46554;48.138;8.420;2023-10-13T11:58:56;3.15;;;1.88;;
60710;SDS011;46554;48.138;8.420;2023-10-13T12:01:27;1.55;;;1.20;;
60710;SDS011;46554;48.138;8.420;2023-10-13T12:04:11;2.33;;;1.27;;
60710;SDS011;46554;48.138;8.420;2023-10-13T12:06:55;2.17;;;1.30;;
60710;SDS011;46554;48.138;8.420;2023-10-13T12:09:38;1.90;;;1.23;;
60710;SDS011;46554;48.138;8.420;2023-10-13T12:12:19;2.22;;;1.55;;
60710;SDS011;46554;48.138;8.420;2023-10-13T12:14:45;2.03;;;1.35;;
60710;SDS011;46554;48.138;8.420;2023-10-13T12:17:27;4.68;;;1.42;;
60710;SDS011;46554;48.138;8.420;2023-10-13T12:19:59;1.65;;;1.30;;
60710;SDS011;46554;48.138;8.420;2023-10-13T12:22:26;2.10;;;1.53;;
60710;SDS011;46554;48.138;8.420;2023-10-13T12:25:00;1.13;;;0.98;;
60710;SDS011;46554;48.138;8.420;2023-10-13T12:27:29;3.63;;;2.08;;
60710;SDS011;46554;48.138;8.420;2023-10-13T12:30:10;1.63;;;1.52;;
60710;SDS011;46554;48.138;8.420;2023-10-13T12:32:38;1.30;;;1.20;;
60710;SDS011;46554;48.138;8.420;2023-10-13T12:35:09;2.10;;;1.60;;
60710;SDS011;46554;48.138;8.420;2023-10-13T12:37:35;3.00;;;1.38;;
60710;SDS011;46554;48.138;8.420;2023-10-13T12:40:07;5.30;;;1.20;;
60710;SDS011;46554;48.138;8.420;2023-10-13T12:42:53;2.38;;;1.35;;
60710;SDS011;46554;48.138;8.420;2023-10-13T12:45:40;5.35;;;1.17;;
60710;SDS011;46554;48.138;8.420;2023-10-13T12:48:28;1.73;;;1.15;;
60710;SDS011;46554;48.138;8.420;2023-10-13T12:51:15;1.48;;;1.02;;
60710;SDS011;46554;48.138;8.420;2023-10-13T12:53:52;1.08;;;1.08;;
60710;SDS011;46554;48.138;8.420;2023-10-13T12:56:19;4.00;;;1.50;;
60710;SDS011;46554;48.138;8.420;2023-10-13T12:58:54;1.45;;;1.02;;
60710;SDS011;46554;48.138;8.420;2023-10-13T13:01:23;1.90;;;1.15;;
60710;SDS011;46554;48.138;8.420;2023-10-13T13:03:52;2.65;;;1.40;;
60710;SDS011;46554;48.138;8.420;2023-10-13T13:06:26;2.38;;;1.30;;
60710;SDS011;46554;48.138;8.420;2023-10-13T13:08:58;0.90;;;0.88;;
60710;SDS011;46554;48.138;8.420;2023-10-13T13:11:26;2.80;;;1.20;;
60710;SDS011;46554;48.138;8.420;2023-10-13T13:13:54;1.90;;;1.20;;
60710;SDS011;46554;48.138;8.420;2023-10-13T13:16:20;7.13;;;1.45;;
60710;SDS011;46554;48.138;8.420;2023-10-13T13:18:55;1.73;;;1.15;;
60710;SDS011;46554;48.138;8.420;2023-10-13T13:21:21;1.40;;;1.20;;
60710;SDS011;46554;48.138;8.420;2023-10-13T13:23:52;1.10;;;1.00;;
60710;SDS011;46554;48.138;8.420;2023-10-13T13:26:23;1.58;;;1.20;;
60710;SDS011;46554;48.138;8.420;2023-10-13T13:28:49;2.20;;;1.30;;
60710;SDS011;46554;48.138;8.420;2023-10-13T13:31:21;2.50;;;0.85;;
60710;SDS011;46554;48.138;8.420;2023-10-13T13:33:52;2.97;;;1.17;;
60710;SDS011;46554;48.138;8.420;2023-10-13T13:36:18;2.70;;;1.77;;
60710;SDS011;46554;48.138;8.420;2023-10-13T13:38:44;1.88;;;1.33;;
60710;SDS011;46554;48.138;8.420;2023-10-13T13:41:19;1.23;;;1.10;;
60710;SDS011;46554;48.138;8.420;2023-10-13T13:43:45;5.30;;;1.20;;
60710;SDS011;46554;48.138;8.420;2023-10-13T13:46:33;1.38;;;1.27;;
60710;SDS011;46554;48.138;8.420;2023-10-13T13:49:06;1.23;;;0.80;;
60710;SDS011;46554;48.138;8.420;2023-10-13T13:51:42;10.32;;;1.45;;
60710;SDS011;46554;48.138;8.420;2023-10-13T13:54:17;1.77;;;1.13;;
60710;SDS011;46554;48.138;8.420;2023-10-13T13:56:43;2.10;;;1.25;;
60710;SDS011;46554;48.138;8.420;2023-10-13T13:59:09;0.98;;;0.98;;
60710;SDS011;46554;48.138;8.420;2023-10-13T14:01:40;1.55;;;1.33;;
60710;SDS011;46554;48.138;8.420;2023-10-13T14:04:09;1.00;;;1.00;;
60710;SDS011;46554;48.138;8.420;2023-10-13T14:06:34;2.72;;;1.20;;
60710;SDS011;46554;48.138;8.420;2023-10-13T14:09:00;1.25;;;0.88;;
60710;SDS011;46554;48.138;8.420;2023-10-13T14:11:31;1.02;;;1.00;;
60710;SDS011;46554;48.138;8.420;2023-10-13T14:14:06;3.72;;;1.20;;
60710;SDS011;46554;48.138;8.420;2023-10-13T14:16:38;3.45;;;1.58;;
60710;SDS011;46554;48.138;8.420;2023-10-13T14:19:09;3.65;;;1.40;;
60710;SDS011;46554;48.138;8.420;2023-10-13T14:21:35;2.17;;;1.10;;
60710;SDS011;46554;48.138;8.420;2023-10-13T14:24:00;1.20;;;1.02;;
60710;SDS011;46554;48.138;8.420;2023-10-13T14:26:27;4.30;;;1.67;;
60710;SDS011;46554;48.138;8.420;2023-10-13T14:28:56;1.48;;;1.30;;
60710;SDS011;46554;48.138;8.420;2023-10-13T14:31:31;2.78;;;1.40;;
60710;SDS011;46554;48.138;8.420;2023-10-13T14:33:59;3.08;;;2.03;;
60710;SDS011;46554;48.138;8.420;2023-10-13T14:36:26;2.20;;;1.45;;
60710;SDS011;46554;48.138;8.420;2023-10-13T14:38:59;1.58;;;1.13;;
60710;SDS011;46554;48.138;8.420;2023-10-13T14:41:28;2.40;;;1.38;;
60710;SDS011;46554;48.138;8.420;2023-10-13T14:43:54;4.28;;;1.42;;
60710;SDS011;46554;48.138;8.420;2023-10-13T14:46:22;1.38;;;1.27;;
60710;SDS011;46554;48.138;8.420;2023-10-13T14:48:53;2.47;;;1.45;;
60710;SDS011;46554;48.138;8.420;2023-10-13T14:51:22;2.25;;;1.38;;
60710;SDS011;46554;48.138;8.420;2023-10-13T14:53:47;2.35;;;1.58;;
60710;SDS011;46554;48.138;8.420;2023-10-13T14:56:14;2.80;;;1.85;;
60710;SDS011;46554;48.138;8.420;2023-10-13T14:58:40;1.30;;;1.15;;
60710;SDS011;46554;48.138;8.420;2023-10-13T15:01:12;1.40;;;1.02;;
60710;SDS011;46554;48.138;8.420;2023-10-13T15:03:43;2.03;;;1.10;;
60710;SDS011;46554;48.138;8.420;2023-10-13T15:06:14;2.40;;;1.65;;
60710;SDS011;46554;48.138;8.420;2023-10-13T15:08:44;2.45;;;1.75;;
60710;SDS011;46554;48.138;8.420;2023-10-13T15:11:15;3.47;;;1.70;;
60710;SDS011;46554;48.138;8.420;2023-10-13T15:13:43;4.57;;;3.67;;
60710;SDS011;46554;48.138;8.420;2023-10-13T15:16:18;7.70;;;2.58;;
60710;SDS011;46554;48.138;8.420;2023-10-13T15:18:49;2.55;;;1.58;;
60710;SDS011;46554;48.138;8.420;2023-10-13T15:21:22;11.67;;;10.93;;
60710;SDS011;46554;48.138;8.420;2023-10-13T15:23:49;2.20;;;1.60;;
60710;SDS011;46554;48.138;8.420;2023-10-13T15:26:16;1.90;;;1.80;;
60710;SDS011;46554;48.138;8.420;2023-10-13T15:28:45;8.35;;;2.22;;
60710;SDS011;46554;48.138;8.420;2023-10-13T15:31:21;8.05;;;7.57;;
60710;SDS011;46554;48.138;8.420;2023-10-13T15:33:59;11.52;;;3.63;;
60710;SDS011;46554;48.138;8.420;2023-10-13T15:36:31;2.65;;;2.10;;
60710;SDS011;46554;48.138;8.420;2023-10-13T15:38:57;3.85;;;2.83;;
60710;SDS011;46554;48.138;8.420;2023-10-13T15:41:27;2.00;;;1.90;;
60710;SDS011;46554;48.138;8.420;2023-10-13T15:43:54;4.30;;;1.42;;
60710;SDS011;46554;48.138;8.420;2023-10-13T15:46:20;3.50;;;2.20;;
60710;SDS011;46554;48.138;8.420;2023-10-13T15:48:50;2.65;;;1.58;;